sensor_id;sensor_type;location;lat;lon;timestamp;pressure;altitude;pressure_sealevel;temperature;humidity
81802;BME280;71199;52.490;5.448;2023-08-24T00:01:03;102024.56;;;15.83;82.65
81802;BME280;71199;52.490;5.448;2023-08-24T00:03:29;102010.41;;;15.78;82.60
81802;BME280;71199;52.490;5.448;2023-08-24T00:05:54;102006.41;;;15.80;82.77
81802;BME280;71199;52.490;5.448;2023-08-24T00:08:20;102000.66;;;15.90;82.46
81802;BME280;71199;52.490;5.448;2023-08-24T00:10:45;102005.84;;;15.85;82.26
81802;BME280;71199;52.490;5.448;2023-08-24T00:13:12;102008.31;;;15.71;83.00
81802;BME280;71199;52.490;5.448;2023-08-24T00:15:38;102011.78;;;15.65;83.08
81802;BME280;71199;52.490;5.448;2023-08-24T00:18:05;102018.53;;;15.71;83.22
81802;BME280;71199;52.490;5.448;2023-08-24T00:20:31;102015.59;;;15.73;83.11
81802;BME280;71199;52.490;5.448;2023-08-24T00:22:58;102011.78;;;15.82;83.19
81802;BME280;71199;52.490;5.448;2023-08-24T00:25:24;102016.25;;;15.83;83.39
81802;BME280;71199;52.490;5.448;2023-08-24T00:27:52;101997.91;;;15.82;83.72
81802;BME280;71199;52.490;5.448;2023-08-24T00:30:18;101993.41;;;15.81;84.03
81802;BME280;71199;52.490;5.448;2023-08-24T00:32:43;101990.63;;;15.81;83.44
81802;BME280;71199;52.490;5.448;2023-08-24T00:35:09;101989.03;;;15.86;82.90
81802;BME280;71199;52.490;5.448;2023-08-24T00:37:36;101976.00;;;15.95;82.54
81802;BME280;71199;52.490;5.448;2023-08-24T00:40:03;101973.19;;;16.03;82.45
81802;BME280;71199;52.490;5.448;2023-08-24T00:42:30;101975.22;;;16.09;82.12
81802;BME280;71199;52.490;5.448;2023-08-24T00:44:57;101979.91;;;16.09;82.10
81802;BME280;71199;52.490;5.448;2023-08-24T00:47:23;101969.38;;;16.04;82.13
81802;BME280;71199;52.490;5.448;2023-08-24T00:49:49;101976.53;;;16.22;81.83
81802;BME280;71199;52.490;5.448;2023-08-24T00:52:14;101984.19;;;16.20;81.77
81802;BME280;71199;52.490;5.448;2023-08-24T00:54:41;101985.25;;;16.19;81.78
81802;BME280;71199;52.490;5.448;2023-08-24T00:57:06;101980.03;;;16.16;81.87
81802;BME280;71199;52.490;5.448;2023-08-24T00:59:33;101997.69;;;16.23;81.72
81802;BME280;71199;52.490;5.448;2023-08-24T01:01:59;101990.34;;;16.30;81.44
81802;BME280;71199;52.490;5.448;2023-08-24T01:04:24;101981.97;;;16.38;81.32
81802;BME280;71199;52.490;5.448;2023-08-24T01:06:50;101969.47;;;16.42;81.01
81802;BME280;71199;52.490;5.448;2023-08-24T01:09:16;101970.53;;;16.41;81.16
81802;BME280;71199;52.490;5.448;2023-08-24T01:11:49;101950.38;;;16.47;81.07
81802;BME280;71199;52.490;5.448;2023-08-24T01:14:31;101958.19;;;16.44;81.31
81802;BME280;71199;52.490;5.448;2023-08-24T01:17:03;101968.53;;;16.50;80.95
81802;BME280;71199;52.490;5.448;2023-08-24T01:19:43;101986.03;;;16.50;81.27
81802;BME280;71199;52.490;5.448;2023-08-24T01:22:31;101987.28;;;16.48;81.00
81802;BME280;71199;52.490;5.448;2023-08-24T01:25:06;101970.53;;;16.41;81.39
81802;BME280;71199;52.490;5.448;2023-08-24T01:27:33;101973.09;;;16.43;82.24
81802;BME280;71199;52.490;5.448;2023-08-24T01:30:03;101992.22;;;16.38;82.75
81802;BME280;71199;52.490;5.448;2023-08-24T01:32:33;101996.81;;;16.22;83.75
81802;BME280;71199;52.490;5.448;2023-08-24T01:35:00;102002.91;;;16.18;84.11
81802;BME280;71199;52.490;5.448;2023-08-24T01:37:26;101981.88;;;16.00;85.40
81802;BME280;71199;52.490;5.448;2023-08-24T01:40:26;101985.38;;;15.94;86.31
81802;BME280;71199;52.490;5.448;2023-08-24T01:42:56;101984.00;;;15.90;86.39
81802;BME280;71199;52.490;5.448;2023-08-24T01:45:26;101987.69;;;15.82;87.16
81802;BME280;71199;52.490;5.448;2023-08-24T01:47:54;101975.75;;;15.82;87.27
81802;BME280;71199;52.490;5.448;2023-08-24T01:50:20;101960.69;;;15.76;87.58
81802;BME280;71199;52.490;5.448;2023-08-24T01:52:45;101957.56;;;15.71;88.57
81802;BME280;71199;52.490;5.448;2023-08-24T01:55:11;101961.06;;;15.73;88.23
81802;BME280;71199;52.490;5.448;2023-08-24T01:57:37;101954.28;;;15.76;87.80
81802;BME280;71199;52.490;5.448;2023-08-24T02:00:03;101950.84;;;15.65;88.39
81802;BME280;71199;52.490;5.448;2023-08-24T02:02:31;101948.44;;;15.54;88.98
81802;BME280;71199;52.490;5.448;2023-08-24T02:04:58;101947.28;;;15.48;89.32
81802;BME280;71199;52.490;5.448;2023-08-24T02:07:23;101942.94;;;15.46;89.96
81802;BME280;71199;52.490;5.448;2023-08-24T02:09:49;101945.03;;;15.44;90.04
81802;BME280;71199;52.490;5.448;2023-08-24T02:12:14;101947.09;;;15.42;90.53
81802;BME280;71199;52.490;5.448;2023-08-24T02:14:39;101945.94;;;15.36;91.12
81802;BME280;71199;52.490;5.448;2023-08-24T02:17:05;101938.63;;;15.43;90.93
81802;BME280;71199;52.490;5.448;2023-08-24T02:19:31;101924.75;;;15.51;90.21
81802;BME280;71199;52.490;5.448;2023-08-24T02:21:57;101926.16;;;15.47;90.09
81802;BME280;71199;52.490;5.448;2023-08-24T02:24:22;101933.91;;;15.52;89.81
81802;BME280;71199;52.490;5.448;2023-08-24T02:26:47;101926.97;;;15.56;89.93
81802;BME280;71199;52.490;5.448;2023-08-24T02:29:13;101932.72;;;15.55;89.94
81802;BME280;71199;52.490;5.448;2023-08-24T02:31:39;101931.66;;;15.56;89.75
81802;BME280;71199;52.490;5.448;2023-08-24T02:34:06;101929.44;;;15.51;90.12
81802;BME280;71199;52.490;5.448;2023-08-24T02:36:31;101929.06;;;15.54;89.71
81802;BME280;71199;52.490;5.448;2023-08-24T02:38:58;101924.56;;;15.53;89.82
81802;BME280;71199;52.490;5.448;2023-08-24T02:41:24;101927.34;;;15.53;89.78
81802;BME280;71199;52.490;5.448;2023-08-24T02:43:49;101925.81;;;15.50;89.54
81802;BME280;71199;52.490;5.448;2023-08-24T02:46:14;101930.47;;;15.50;90.07
81802;BME280;71199;52.490;5.448;2023-08-24T02:48:40;101935.69;;;15.45;89.98
81802;BME280;71199;52.490;5.448;2023-08-24T02:51:05;101928.78;;;15.41;90.16
81802;BME280;71199;52.490;5.448;2023-08-24T02:53:31;101925.50;;;15.37;90.26
81802;BME280;71199;52.490;5.448;2023-08-24T02:55:57;101928.81;;;15.32;90.61
81802;BME280;71199;52.490;5.448;2023-08-24T02:58:23;101929.53;;;15.26;90.98
81802;BME280;71199;52.490;5.448;2023-08-24T03:00:49;101929.69;;;15.25;91.06
81802;BME280;71199;52.490;5.448;2023-08-24T03:03:14;101918.31;;;15.20;91.64
81802;BME280;71199;52.490;5.448;2023-08-24T03:05:40;101909.63;;;15.23;90.95
81802;BME280;71199;52.490;5.448;2023-08-24T03:08:06;101918.81;;;15.15;91.95
81802;BME280;71199;52.490;5.448;2023-08-24T03:10:34;101910.50;;;15.15;91.64
81802;BME280;71199;52.490;5.448;2023-08-24T03:13:00;101906.56;;;15.09;91.74
81802;BME280;71199;52.490;5.448;2023-08-24T03:15:25;101896.19;;;15.11;91.85
81802;BME280;71199;52.490;5.448;2023-08-24T03:17:51;101885.28;;;15.10;92.07
81802;BME280;71199;52.490;5.448;2023-08-24T03:20:18;101890.66;;;15.11;91.86
81802;BME280;71199;52.490;5.448;2023-08-24T03:22:43;101874.88;;;15.12;91.91
81802;BME280;71199;52.490;5.448;2023-08-24T03:25:09;101878.38;;;15.06;92.28
81802;BME280;71199;52.490;5.448;2023-08-24T03:27:35;101879.75;;;15.02;91.73
81802;BME280;71199;52.490;5.448;2023-08-24T03:30:00;101873.38;;;15.01;92.02
81802;BME280;71199;52.490;5.448;2023-08-24T03:32:26;101867.31;;;14.98;92.21
81802;BME280;71199;52.490;5.448;2023-08-24T03:34:58;101874.22;;;15.02;92.00
81802;BME280;71199;52.490;5.448;2023-08-24T03:37:24;101871.28;;;15.03;91.92
81802;BME280;71199;52.490;5.448;2023-08-24T03:39:49;101861.97;;;14.96;92.25
81802;BME280;71199;52.490;5.448;2023-08-24T03:42:14;101862.31;;;14.93;92.29
81802;BME280;71199;52.490;5.448;2023-08-24T03:44:40;101859.22;;;14.88;92.46
81802;BME280;71199;52.490;5.448;2023-08-24T03:47:05;101865.56;;;14.97;92.44
81802;BME280;71199;52.490;5.448;2023-08-24T03:49:31;101860.44;;;14.85;92.79
81802;BME280;71199;52.490;5.448;2023-08-24T03:51:56;101861.47;;;14.84;92.69
81802;BME280;71199;52.490;5.448;2023-08-24T03:54:21;101864.59;;;14.81;92.73
81802;BME280;71199;52.490;5.448;2023-08-24T03:56:48;101869.06;;;14.82;92.91
81802;BME280;71199;52.490;5.448;2023-08-24T03:59:13;101859.22;;;14.80;93.01
81802;BME280;71199;52.490;5.448;2023-08-24T04:01:39;101864.94;;;14.78;92.70
81802;BME280;71199;52.490;5.448;2023-08-24T04:04:04;101860.78;;;14.82;93.00
81802;BME280;71199;52.490;5.448;2023-08-24T04:06:29;101861.66;;;14.83;92.70
81802;BME280;71199;52.490;5.448;2023-08-24T04:08:55;101856.63;;;14.78;92.73
81802;BME280;71199;52.490;5.448;2023-08-24T04:11:20;101849.91;;;14.81;92.40
81802;BME280;71199;52.490;5.448;2023-08-24T04:13:45;101856.47;;;14.80;92.52
81802;BME280;71199;52.490;5.448;2023-08-24T04:16:11;101857.66;;;14.85;92.46
81802;BME280;71199;52.490;5.448;2023-08-24T04:18:36;101859.59;;;14.77;92.63
81802;BME280;71199;52.490;5.448;2023-08-24T04:21:02;101859.78;;;14.75;92.98
81802;BME280;71199;52.490;5.448;2023-08-24T04:23:27;101861.16;;;14.79;92.70
81802;BME280;71199;52.490;5.448;2023-08-24T04:25:53;101863.91;;;14.79;92.54
81802;BME280;71199;52.490;5.448;2023-08-24T04:28:19;101862.38;;;14.77;92.87
81802;BME280;71199;52.490;5.448;2023-08-24T04:30:52;101863.06;;;14.70;93.25
81802;BME280;71199;52.490;5.448;2023-08-24T04:33:18;101858.03;;;14.66;93.28
81802;BME280;71199;52.490;5.448;2023-08-24T04:35:48;101863.25;;;14.69;93.08
81802;BME280;71199;52.490;5.448;2023-08-24T04:38:14;101864.94;;;14.70;92.95
81802;BME280;71199;52.490;5.448;2023-08-24T04:40:49;101874.13;;;14.70;92.92
81802;BME280;71199;52.490;5.448;2023-08-24T04:43:15;101866.19;;;14.67;93.03
81802;BME280;71199;52.490;5.448;2023-08-24T04:45:41;101867.72;;;14.62;93.61
81802;BME280;71199;52.490;5.448;2023-08-24T04:48:06;101867.56;;;14.63;93.54
81802;BME280;71199;52.490;5.448;2023-08-24T04:50:32;101862.88;;;14.64;93.69
81802;BME280;71199;52.490;5.448;2023-08-24T04:52:57;101861.84;;;14.73;92.98
81802;BME280;71199;52.490;5.448;2023-08-24T04:55:23;101873.59;;;14.83;92.53
81802;BME280;71199;52.490;5.448;2023-08-24T04:57:48;101868.91;;;14.84;92.61
81802;BME280;71199;52.490;5.448;2023-08-24T05:00:14;101866.66;;;14.87;92.10
81802;BME280;71199;52.490;5.448;2023-08-24T05:02:42;101862.31;;;14.93;91.93
81802;BME280;71199;52.490;5.448;2023-08-24T05:05:08;101861.97;;;14.96;91.78
81802;BME280;71199;52.490;5.448;2023-08-24T05:07:39;101855.72;;;14.94;91.86
81802;BME280;71199;52.490;5.448;2023-08-24T05:10:06;101852.13;;;14.94;91.94
81802;BME280;71199;52.490;5.448;2023-08-24T05:12:32;101847.78;;;14.99;91.60
81802;BME280;71199;52.490;5.448;2023-08-24T05:14:59;101855.19;;;14.99;91.73
81802;BME280;71199;52.490;5.448;2023-08-24T05:17:24;101860.72;;;14.99;91.80
81802;BME280;71199;52.490;5.448;2023-08-24T05:19:53;101847.53;;;15.09;91.22
81802;BME280;71199;52.490;5.448;2023-08-24T05:22:18;101851.88;;;15.11;91.23
81802;BME280;71199;52.490;5.448;2023-08-24T05:24:44;101838.34;;;15.17;91.00
81802;BME280;71199;52.490;5.448;2023-08-24T05:27:09;101827.56;;;15.30;90.46
81802;BME280;71199;52.490;5.448;2023-08-24T05:29:35;101831.47;;;15.44;89.98
81802;BME280;71199;52.490;5.448;2023-08-24T05:32:00;101826.22;;;15.57;89.35
81802;BME280;71199;52.490;5.448;2023-08-24T05:34:25;101818.13;;;15.70;88.79
81802;BME280;71199;52.490;5.448;2023-08-24T05:36:51;101823.09;;;15.83;88.01
81802;BME280;71199;52.490;5.448;2023-08-24T05:39:16;101824.78;;;15.93;87.78
81802;BME280;71199;52.490;5.448;2023-08-24T05:41:42;101813.75;;;16.07;87.58
81802;BME280;71199;52.490;5.448;2023-08-24T05:44:07;101814.94;;;16.28;86.04
81802;BME280;71199;52.490;5.448;2023-08-24T05:46:32;101812.09;;;16.36;85.35
81802;BME280;71199;52.490;5.448;2023-08-24T05:48:58;101814.41;;;16.47;84.96
81802;BME280;71199;52.490;5.448;2023-08-24T05:51:24;101820.06;;;16.54;85.04
81802;BME280;71199;52.490;5.448;2023-08-24T05:53:50;101818.38;;;16.68;84.21
81802;BME280;71199;52.490;5.448;2023-08-24T05:56:21;101813.19;;;16.80;84.08
81802;BME280;71199;52.490;5.448;2023-08-24T05:58:47;101808.06;;;16.91;83.45
81802;BME280;71199;52.490;5.448;2023-08-24T06:01:12;101797.41;;;17.10;82.40
81802;BME280;71199;52.490;5.448;2023-08-24T06:03:37;101806.69;;;17.32;80.46
81802;BME280;71199;52.490;5.448;2023-08-24T06:06:03;101811.63;;;17.37;81.52
81802;BME280;71199;52.490;5.448;2023-08-24T06:08:29;101809.66;;;17.52;80.24
81802;BME280;71199;52.490;5.448;2023-08-24T06:10:56;101805.25;;;17.58;80.26
81802;BME280;71199;52.490;5.448;2023-08-24T06:13:21;101803.69;;;17.70;79.52
81802;BME280;71199;52.490;5.448;2023-08-24T06:15:47;101797.03;;;17.86;79.26
81802;BME280;71199;52.490;5.448;2023-08-24T06:18:12;101797.41;;;17.83;78.52
81802;BME280;71199;52.490;5.448;2023-08-24T06:20:38;101787.75;;;18.00;78.57
81802;BME280;71199;52.490;5.448;2023-08-24T06:23:03;101777.81;;;18.12;78.47
81802;BME280;71199;52.490;5.448;2023-08-24T06:25:28;101769.56;;;18.26;78.24
81802;BME280;71199;52.490;5.448;2023-08-24T06:27:54;101774.75;;;18.29;77.48
81802;BME280;71199;52.490;5.448;2023-08-24T06:30:19;101770.63;;;18.53;76.57
81802;BME280;71199;52.490;5.448;2023-08-24T06:32:44;101750.53;;;18.58;76.70
81802;BME280;71199;52.490;5.448;2023-08-24T06:35:10;101760.47;;;18.73;76.03
81802;BME280;71199;52.490;5.448;2023-08-24T06:37:39;101736.72;;;18.78;75.74
81802;BME280;71199;52.490;5.448;2023-08-24T06:40:05;101733.13;;;18.84;75.67
81802;BME280;71199;52.490;5.448;2023-08-24T06:42:31;101721.22;;;18.97;75.53
81802;BME280;71199;52.490;5.448;2023-08-24T06:44:56;101727.25;;;19.07;74.76
81802;BME280;71199;52.490;5.448;2023-08-24T06:47:22;101731.59;;;19.23;74.60
81802;BME280;71199;52.490;5.448;2023-08-24T06:49:47;101734.88;;;19.46;74.33
81802;BME280;71199;52.490;5.448;2023-08-24T06:52:13;101736.81;;;19.59;73.81
81802;BME280;71199;52.490;5.448;2023-08-24T06:54:39;101726.75;;;19.65;73.46
81802;BME280;71199;52.490;5.448;2023-08-24T06:57:04;101718.22;;;19.93;72.46
81802;BME280;71199;52.490;5.448;2023-08-24T06:59:30;101706.84;;;20.15;72.06
81802;BME280;71199;52.490;5.448;2023-08-24T07:01:55;101698.06;;;19.78;72.63
81802;BME280;71199;52.490;5.448;2023-08-24T07:04:21;101705.56;;;19.84;73.06
81802;BME280;71199;52.490;5.448;2023-08-24T07:06:46;101706.84;;;20.01;72.62
81802;BME280;71199;52.490;5.448;2023-08-24T07:09:12;101716.47;;;20.45;72.56
81802;BME280;71199;52.490;5.448;2023-08-24T07:11:38;101715.25;;;20.93;69.99
81802;BME280;71199;52.490;5.448;2023-08-24T07:14:03;101707.81;;;21.19;68.32
81802;BME280;71199;52.490;5.448;2023-08-24T07:16:29;101700.81;;;21.48;67.99
81802;BME280;71199;52.490;5.448;2023-08-24T07:18:55;101702.16;;;21.70;67.04
81802;BME280;71199;52.490;5.448;2023-08-24T07:21:20;101698.47;;;21.77;66.46
81802;BME280;71199;52.490;5.448;2023-08-24T07:23:46;101708.78;;;21.76;66.16
81802;BME280;71199;52.490;5.448;2023-08-24T07:26:12;101719.06;;;21.82;66.14
81802;BME280;71199;52.490;5.448;2023-08-24T07:28:37;101703.88;;;21.97;65.80
81802;BME280;71199;52.490;5.448;2023-08-24T07:31:09;101709.69;;;22.45;64.71
81802;BME280;71199;52.490;5.448;2023-08-24T07:33:36;101709.38;;;22.72;64.00
81802;BME280;71199;52.490;5.448;2023-08-24T07:36:04;101696.31;;;22.84;63.37
81802;BME280;71199;52.490;5.448;2023-08-24T07:38:29;101694.75;;;23.07;62.68
81802;BME280;71199;52.490;5.448;2023-08-24T07:40:56;101696.53;;;23.01;62.35
81802;BME280;71199;52.490;5.448;2023-08-24T07:43:21;101695.50;;;23.14;62.71
81802;BME280;71199;52.490;5.448;2023-08-24T07:45:46;101688.81;;;23.15;61.93
81802;BME280;71199;52.490;5.448;2023-08-24T07:48:12;101695.22;;;23.34;62.06
81802;BME280;71199;52.490;5.448;2023-08-24T07:50:37;101686.44;;;23.30;61.73
81802;BME280;71199;52.490;5.448;2023-08-24T07:53:03;101692.88;;;23.01;62.52
81802;BME280;71199;52.490;5.448;2023-08-24T07:55:29;101677.44;;;22.91;63.59
81802;BME280;71199;52.490;5.448;2023-08-24T07:57:55;101676.94;;;23.31;62.12
81802;BME280;71199;52.490;5.448;2023-08-24T08:00:20;101671.66;;;23.53;61.36
81802;BME280;71199;52.490;5.448;2023-08-24T08:02:49;101686.53;;;23.54;61.81
81802;BME280;71199;52.490;5.448;2023-08-24T08:05:15;101685.47;;;23.25;61.88
81802;BME280;71199;52.490;5.448;2023-08-24T08:07:40;101678.38;;;23.04;62.01
81802;BME280;71199;52.490;5.448;2023-08-24T08:10:06;101672.31;;;23.07;62.09
81802;BME280;71199;52.490;5.448;2023-08-24T08:12:32;101667.53;;;23.26;62.35
81802;BME280;71199;52.490;5.448;2023-08-24T08:14:57;101668.50;;;23.62;60.91
81802;BME280;71199;52.490;5.448;2023-08-24T08:17:23;101663.03;;;23.90;59.69
81802;BME280;71199;52.490;5.448;2023-08-24T08:19:48;101672.34;;;24.38;59.40
81802;BME280;71199;52.490;5.448;2023-08-24T08:22:14;101652.41;;;24.75;57.68
81802;BME280;71199;52.490;5.448;2023-08-24T08:24:39;101659.53;;;24.94;56.71
81802;BME280;71199;52.490;5.448;2023-08-24T08:27:05;101667.28;;;24.87;57.16
81802;BME280;71199;52.490;5.448;2023-08-24T08:29:30;101647.47;;;24.82;57.30
81802;BME280;71199;52.490;5.448;2023-08-24T08:31:56;101648.50;;;25.05;57.21
81802;BME280;71199;52.490;5.448;2023-08-24T08:34:21;101648.31;;;25.11;56.79
81802;BME280;71199;52.490;5.448;2023-08-24T08:36:46;101643.28;;;25.25;55.92
81802;BME280;71199;52.490;5.448;2023-08-24T08:39:12;101635.72;;;25.14;57.75
81802;BME280;71199;52.490;5.448;2023-08-24T08:41:40;101615.59;;;24.77;57.21
81802;BME280;71199;52.490;5.448;2023-08-24T08:44:07;101624.97;;;24.82;58.12
81802;BME280;71199;52.490;5.448;2023-08-24T08:46:34;101631.06;;;24.50;57.84
81802;BME280;71199;52.490;5.448;2023-08-24T08:49:00;101633.75;;;24.33;59.06
81802;BME280;71199;52.490;5.448;2023-08-24T08:51:26;101641.59;;;24.08;58.65
81802;BME280;71199;52.490;5.448;2023-08-24T08:53:52;101640.75;;;24.07;59.24
81802;BME280;71199;52.490;5.448;2023-08-24T08:56:18;101631.19;;;24.08;60.20
81802;BME280;71199;52.490;5.448;2023-08-24T08:58:45;101628.63;;;24.07;59.95
81802;BME280;71199;52.490;5.448;2023-08-24T09:01:12;101631.09;;;24.03;58.44
81802;BME280;71199;52.490;5.448;2023-08-24T09:03:39;101619.34;;;23.94;59.38
81802;BME280;71199;52.490;5.448;2023-08-24T09:06:05;101624.25;;;23.99;59.75
81802;BME280;71199;52.490;5.448;2023-08-24T09:08:30;101627.03;;;24.11;59.48
81802;BME280;71199;52.490;5.448;2023-08-24T09:10:58;101623.88;;;24.19;59.14
81802;BME280;71199;52.490;5.448;2023-08-24T09:13:23;101600.69;;;24.00;59.07
81802;BME280;71199;52.490;5.448;2023-08-24T09:15:51;101590.19;;;23.84;59.23
81802;BME280;71199;52.490;5.448;2023-08-24T09:18:17;101580.91;;;23.71;60.55
81802;BME280;71199;52.490;5.448;2023-08-24T09:20:42;101582.38;;;23.62;60.92
81802;BME280;71199;52.490;5.448;2023-08-24T09:23:17;101567.47;;;23.50;61.47
81802;BME280;71199;52.490;5.448;2023-08-24T09:25:45;101581.84;;;23.42;61.27
81802;BME280;71199;52.490;5.448;2023-08-24T09:28:11;101583.28;;;23.32;61.84
81802;BME280;71199;52.490;5.448;2023-08-24T09:30:37;101567.66;;;23.13;61.96
81802;BME280;71199;52.490;5.448;2023-08-24T09:33:12;101568.13;;;23.10;62.02
81802;BME280;71199;52.490;5.448;2023-08-24T09:35:38;101572.75;;;23.04;62.51
81802;BME280;71199;52.490;5.448;2023-08-24T09:38:20;101600.47;;;22.94;63.05
81802;BME280;71199;52.490;5.448;2023-08-24T09:40:47;101610.69;;;22.88;63.06
81802;BME280;71199;52.490;5.448;2023-08-24T09:43:16;101592.72;;;22.78;63.12
81802;BME280;71199;52.490;5.448;2023-08-24T09:45:55;101580.63;;;22.77;63.54
81802;BME280;71199;52.490;5.448;2023-08-24T09:48:21;101566.22;;;22.62;64.13
81802;BME280;71199;52.490;5.448;2023-08-24T09:50:48;101556.19;;;22.54;64.41
81802;BME280;71199;52.490;5.448;2023-08-24T09:53:16;101547.06;;;22.59;64.41
81802;BME280;71199;52.490;5.448;2023-08-24T09:55:55;101526.22;;;22.54;64.56
81802;BME280;71199;52.490;5.448;2023-08-24T09:58:24;101521.81;;;22.47;64.91
81802;BME280;71199;52.490;5.448;2023-08-24T10:00:49;101533.97;;;22.41;65.55
81802;BME280;71199;52.490;5.448;2023-08-24T10:03:17;101531.94;;;22.29;66.16
81802;BME280;71199;52.490;5.448;2023-08-24T10:05:54;101535.34;;;22.13;66.75
81802;BME280;71199;52.490;5.448;2023-08-24T10:08:26;101530.00;;;21.93;68.80
81802;BME280;71199;52.490;5.448;2023-08-24T10:10:55;101527.50;;;21.85;68.72
81802;BME280;71199;52.490;5.448;2023-08-24T10:13:29;101532.16;;;21.72;69.38
81802;BME280;71199;52.490;5.448;2023-08-24T10:15:57;101534.56;;;21.69;69.46
81802;BME280;71199;52.490;5.448;2023-08-24T10:18:23;101536.25;;;21.70;69.59
81802;BME280;71199;52.490;5.448;2023-08-24T10:20:49;101533.84;;;21.73;69.34
81802;BME280;71199;52.490;5.448;2023-08-24T10:23:19;101531.88;;;21.81;69.24
81802;BME280;71199;52.490;5.448;2023-08-24T10:25:46;101539.31;;;21.87;69.17
81802;BME280;71199;52.490;5.448;2023-08-24T10:28:11;101542.03;;;21.93;69.29
81802;BME280;71199;52.490;5.448;2023-08-24T10:30:38;101545.59;;;22.01;68.76
81802;BME280;71199;52.490;5.448;2023-08-24T10:33:05;101545.47;;;22.14;67.80
81802;BME280;71199;52.490;5.448;2023-08-24T10:35:31;101549.75;;;22.17;68.12
81802;BME280;71199;52.490;5.448;2023-08-24T10:37:58;101561.41;;;22.13;68.66
81802;BME280;71199;52.490;5.448;2023-08-24T10:40:34;101560.63;;;22.06;69.49
81802;BME280;71199;52.490;5.448;2023-08-24T10:43:03;101569.81;;;21.95;70.96
81802;BME280;71199;52.490;5.448;2023-08-24T10:45:55;101575.53;;;21.82;71.77
81802;BME280;71199;52.490;5.448;2023-08-24T10:53:38;101575.28;;;21.33;75.22
81802;BME280;71199;52.490;5.448;2023-08-24T10:56:15;101568.47;;;21.22;77.76
81802;BME280;71199;52.490;5.448;2023-08-24T10:58:45;101570.28;;;21.10;77.88
81802;BME280;71199;52.490;5.448;2023-08-24T11:01:17;101572.50;;;21.01;81.63
81802;BME280;71199;52.490;5.448;2023-08-24T11:03:48;101561.81;;;20.91;78.68
81802;BME280;71199;52.490;5.448;2023-08-24T11:06:25;101556.91;;;20.87;79.87
81802;BME280;71199;52.490;5.448;2023-08-24T11:09:10;101555.84;;;20.88;81.12
81802;BME280;71199;52.490;5.448;2023-08-24T11:11:40;101563.13;;;20.89;80.73
81802;BME280;71199;52.490;5.448;2023-08-24T11:14:21;101567.25;;;20.86;79.69
81802;BME280;71199;52.490;5.448;2023-08-24T11:16:57;101549.91;;;20.78;79.56
81802;BME280;71199;52.490;5.448;2023-08-24T11:19:23;101550.75;;;20.78;80.70
81802;BME280;71199;52.490;5.448;2023-08-24T11:21:48;101553.50;;;20.85;79.98
81802;BME280;71199;52.490;5.448;2023-08-24T11:24:15;101558.03;;;20.86;81.26
81802;BME280;71199;52.490;5.448;2023-08-24T11:26:48;101549.84;;;20.84;81.71
81802;BME280;71199;52.490;5.448;2023-08-24T11:29:14;101551.56;;;20.85;82.68
81802;BME280;71199;52.490;5.448;2023-08-24T11:31:46;101543.59;;;20.89;83.25
81802;BME280;71199;52.490;5.448;2023-08-24T11:34:15;101548.97;;;20.90;82.06
81802;BME280;71199;52.490;5.448;2023-08-24T11:36:47;101540.09;;;21.00;82.94
81802;BME280;71199;52.490;5.448;2023-08-24T11:39:20;101530.75;;;21.13;83.35
81802;BME280;71199;52.490;5.448;2023-08-24T11:42:03;101515.78;;;21.26;82.62
81802;BME280;71199;52.490;5.448;2023-08-24T11:44:29;101507.25;;;21.46;81.87
81802;BME280;71199;52.490;5.448;2023-08-24T11:46:58;101505.03;;;21.73;81.36
81802;BME280;71199;52.490;5.448;2023-08-24T11:49:24;101506.28;;;21.77;80.88
81802;BME280;71199;52.490;5.448;2023-08-24T11:51:50;101508.28;;;21.70;80.10
81802;BME280;71199;52.490;5.448;2023-08-24T11:54:18;101505.75;;;21.68;82.00
81802;BME280;71199;52.490;5.448;2023-08-24T11:56:44;101511.47;;;21.55;77.60
81802;BME280;71199;52.490;5.448;2023-08-24T11:59:16;101516.81;;;21.31;78.75
81802;BME280;71199;52.490;5.448;2023-08-24T12:01:42;101506.94;;;21.04;79.57
81802;BME280;71199;52.490;5.448;2023-08-24T12:04:08;101496.84;;;20.78;80.77
81802;BME280;71199;52.490;5.448;2023-08-24T12:06:34;101483.41;;;20.61;80.64
81802;BME280;71199;52.490;5.448;2023-08-24T12:09:00;101480.22;;;20.51;81.53
81802;BME280;71199;52.490;5.448;2023-08-24T12:11:26;101470.81;;;20.45;82.63
81802;BME280;71199;52.490;5.448;2023-08-24T12:13:54;101471.06;;;20.37;82.49
81802;BME280;71199;52.490;5.448;2023-08-24T12:16:21;101465.00;;;20.40;82.15
81802;BME280;71199;52.490;5.448;2023-08-24T12:18:48;101458.38;;;20.41;83.43
81802;BME280;71199;52.490;5.448;2023-08-24T12:21:14;101451.06;;;20.40;83.38
81802;BME280;71199;52.490;5.448;2023-08-24T12:23:40;101459.38;;;20.53;82.67
81802;BME280;71199;52.490;5.448;2023-08-24T12:26:05;101443.78;;;20.78;81.62
81802;BME280;71199;52.490;5.448;2023-08-24T12:28:34;101443.22;;;20.94;81.03
81802;BME280;71199;52.490;5.448;2023-08-24T12:30:59;101440.91;;;21.09;81.00
81802;BME280;71199;52.490;5.448;2023-08-24T12:33:30;101434.50;;;21.27;80.48
81802;BME280;71199;52.490;5.448;2023-08-24T12:35:56;101437.31;;;21.27;78.90
81802;BME280;71199;52.490;5.448;2023-08-24T12:38:23;101436.38;;;21.33;78.96
81802;BME280;71199;52.490;5.448;2023-08-24T12:40:50;101421.94;;;21.37;79.30
81802;BME280;71199;52.490;5.448;2023-08-24T12:43:15;101416.06;;;21.45;78.64
81802;BME280;71199;52.490;5.448;2023-08-24T12:45:41;101415.84;;;21.46;78.84
81802;BME280;71199;52.490;5.448;2023-08-24T12:48:07;101413.31;;;21.38;78.85
81802;BME280;71199;52.490;5.448;2023-08-24T12:50:33;101412.66;;;21.43;79.99
81802;BME280;71199;52.490;5.448;2023-08-24T12:52:59;101419.97;;;21.44;78.67
81802;BME280;71199;52.490;5.448;2023-08-24T12:55:26;101414.22;;;21.57;78.23